Time;durP1;ratioP1;P1;durP2;ratioP2;P2;SDS_P1;SDS_P2;PMS_P1;PMS_P2;Temp;Humidity;BMP_temperature;BMP_pressure;BME280_temperature;BME280_humidity;BME280_pressure;Samples;Min_cycle;Max_cycle;Signal;HPM_P1;HPM_P2
2022/12/11 00:00:44;;;;;;;9.32;6.65;;;;;;;9.70;78.94;92757.50;5024513;28;20455;-70
2022/12/11 00:03:09;;;;;;;13.63;7.95;;;;;;;9.60;78.65;92761.09;5041013;28;20446;-70
2022/12/11 00:05:38;;;;;;;14.38;7.82;;;;;;;9.60;79.28;92763.69;5034431;28;20044;-70
2022/12/11 00:08:03;;;;;;;15.07;8.55;;;;;;;9.48;79.63;92774.63;5049736;28;20446;-70
2022/12/11 00:10:29;;;;;;;11.43;7.35;;;;;;;9.49;79.81;92750.31;5035581;28;20120;-70
2022/12/11 00:12:54;;;;;;;11.02;7.75;;;;;;;9.35;80.01;92751.84;5035404;28;20029;-70
2022/12/11 00:15:19;;;;;;;12.25;7.38;;;;;;;9.36;80.51;92743.09;5044575;28;20029;-69
2022/12/11 00:17:45;;;;;;;9.48;7.05;;;;;;;9.33;80.30;92739.06;5041734;28;20083;-69
2022/12/11 00:20:10;;;;;;;9.57;6.63;;;;;;;9.46;80.05;92743.69;5049253;28;20033;-70
2022/12/11 00:22:36;;;;;;;11.55;6.68;;;;;;;9.51;79.65;92735.41;5039480;28;20047;-70
2022/12/11 00:25:01;;;;;;;10.10;5.80;;;;;;;9.47;79.93;92736.72;5017435;28;20041;-69
2022/12/11 00:27:27;;;;;;;9.88;6.20;;;;;;;9.36;79.90;92720.59;5051877;28;20024;-70
2022/12/11 00:29:52;;;;;;;11.05;6.35;;;;;;;9.43;79.69;92725.09;5024050;28;20037;-69
2022/12/11 00:32:18;;;;;;;8.68;5.88;;;;;;;9.42;79.44;92726.88;5045851;28;20025;-69
2022/12/11 00:34:43;;;;;;;8.90;6.07;;;;;;;9.44;79.64;92737.06;5047429;28;20037;-70
2022/12/11 00:37:09;;;;;;;7.78;5.68;;;;;;;9.42;79.56;92747.63;5029957;28;20026;-70
2022/12/11 00:39:36;;;;;;;10.50;7.05;;;;;;;9.30;79.25;92741.97;5031532;28;20033;-70
2022/12/11 00:42:01;;;;;;;11.48;6.78;;;;;;;9.36;79.15;92735.31;5030406;28;20030;-70
2022/12/11 00:44:27;;;;;;;11.52;7.35;;;;;;;9.26;79.46;92743.31;5045517;28;20407;-70
2022/12/11 00:46:52;;;;;;;14.48;7.20;;;;;;;9.27;79.58;92731.16;5036313;28;20022;-70
2022/12/11 00:49:18;;;;;;;11.57;7.50;;;;;;;9.25;79.95;92710.63;5031478;28;20428;-70
2022/12/11 00:51:43;;;;;;;11.13;7.32;;;;;;;9.26;79.79;92717.41;5031705;28;20025;-70
2022/12/11 00:54:09;;;;;;;11.38;7.13;;;;;;;9.26;79.44;92704.44;5014507;28;20033;-69
2022/12/11 00:56:34;;;;;;;12.68;6.15;;;;;;;9.22;79.42;92717.91;5030111;28;20565;-70
2022/12/11 00:58:59;;;;;;;10.60;6.47;;;;;;;9.17;79.41;92749.50;5029998;28;20464;-70
2022/12/11 01:01:25;;;;;;;11.50;7.28;;;;;;;9.21;79.17;92755.97;5030048;28;20025;-70
2022/12/11 01:03:51;;;;;;;12.23;6.82;;;;;;;9.14;79.34;92742.09;5032340;28;20096;-70
2022/12/11 01:06:18;;;;;;;14.18;7.43;;;;;;;9.11;79.62;92740.63;5042174;28;20431;-70
2022/12/11 01:08:44;;;;;;;18.27;10.90;;;;;;;8.98;81.50;92739.56;5031283;28;20037;-70
2022/12/11 01:11:11;;;;;;;16.45;8.65;;;;;;;9.08;80.98;92747.91;5023719;28;20029;-70
2022/12/11 01:13:37;;;;;;;17.90;9.98;;;;;;;9.02;81.20;92733.03;5049830;28;20051;-71
2022/12/11 01:16:07;;;;;;;21.95;11.77;;;;;;;9.01;81.80;92772.88;5049761;28;20033;-69
2022/12/11 01:18:33;;;;;;;25.07;14.00;;;;;;;9.05;82.17;92730.13;5051011;28;20032;-70
2022/12/11 01:20:58;;;;;;;28.85;14.90;;;;;;;9.02;81.75;92733.84;5049666;28;20052;-70
2022/12/11 01:23:24;;;;;;;24.35;14.10;;;;;;;9.03;82.18;92732.09;5050965;28;20029;-70
2022/12/11 01:25:49;;;;;;;22.90;13.02;;;;;;;9.08;81.76;92742.72;5020194;28;20040;-70
2022/12/11 01:28:15;;;;;;;19.13;11.50;;;;;;;9.24;80.82;92773.75;5043517;28;20025;-69
2022/12/11 01:30:42;;;;;;;27.42;15.50;;;;;;;9.21;80.74;92801.78;5028865;28;20423;-70
2022/12/11 01:33:07;;;;;;;66.82;32.83;;;;;;;9.07;81.26;92795.50;5041859;28;20040;-70
2022/12/11 01:35:33;;;;;;;31.70;18.42;;;;;;;9.12;81.28;92775.91;5034901;28;20042;-70
2022/12/11 01:37:58;;;;;;;22.02;12.60;;;;;;;8.84;82.56;92754.00;5031031;28;20462;-69
2022/12/11 01:40:24;;;;;;;21.20;12.57;;;;;;;8.79;83.87;92749.31;5042903;28;20060;-70
2022/12/11 01:42:49;;;;;;;19.55;11.27;;;;;;;8.90;84.33;92743.78;5041542;28;20021;-69
2022/12/11 01:45:21;;;;;;;17.05;10.68;;;;;;;9.05;84.65;92737.88;5030662;28;20037;-70
2022/12/11 01:47:50;;;;;;;18.38;11.75;;;;;;;9.05;85.15;92748.25;5031997;28;20114;-70
2022/12/11 01:50:16;;;;;;;19.92;10.68;;;;;;;9.04;85.07;92738.88;5036235;28;20104;-69
2022/12/11 01:52:42;;;;;;;14.85;9.77;;;;;;;9.27;84.83;92728.56;5032949;28;20142;-70
2022/12/11 01:55:08;;;;;;;16.25;9.07;;;;;;;9.32;84.48;92731.47;5035122;28;20033;-70
2022/12/11 01:57:35;;;;;;;14.52;9.07;;;;;;;9.37;84.72;92711.84;5033502;28;20124;-70
2022/12/11 02:00:00;;;;;;;13.20;8.48;;;;;;;9.48;84.87;92712.44;5017154;28;20064;-70
2022/12/11 02:02:27;;;;;;;6.65;3.80;;;;;;;9.67;85.74;92732.72;5034660;28;20049;-68
2022/12/11 02:04:53;;;;;;;5.50;2.13;;;;;;;9.81;85.13;92677.53;5043259;28;20083;-68
2022/12/11 02:07:18;;;;;;;1.50;0.80;;;;;;;10.06;84.08;92672.94;5020611;28;20079;-68
2022/12/11 02:09:45;;;;;;;1.85;0.65;;;;;;;10.29;83.52;92667.72;5046053;28;20112;-68
2022/12/11 02:12:29;;;;;;;3.25;0.70;;;;;;;10.47;83.05;92674.34;5016697;28;20029;-68
2022/12/11 02:15:34;;;;;;;0.93;0.70;;;;;;;10.65;81.56;92687.00;5016589;28;20050;-68
2022/12/11 02:18:12;;;;;;;1.67;0.40;;;;;;;10.83;81.07;92673.63;5051937;28;20037;-68
2022/12/11 02:20:48;;;;;;;1.00;0.52;;;;;;;10.96;80.75;92684.22;5032946;28;20049;-68
2022/12/11 02:23:37;;;;;;;1.65;0.80;;;;;;;11.05;80.40;92667.53;5033061;28;20032;-71
2022/12/11 02:26:17;;;;;;;0.60;0.50;;;;;;;11.18;80.02;92675.47;5034161;28;20044;-69
2022/12/11 02:28:48;;;;;;;1.73;0.70;;;;;;;11.28;79.56;92666.56;5001026;28;20131;-69
2022/12/11 02:31:26;;;;;;;0.98;0.77;;;;;;;11.21;79.34;92648.31;5033115;28;20037;-69
2022/12/11 02:34:05;;;;;;;2.78;0.90;;;;;;;11.48;79.06;92664.19;5033001;28;20045;-68
2022/12/11 02:36:32;;;;;;;1.60;0.90;;;;;;;11.61;78.60;92639.13;5032934;28;20557;-68
2022/12/11 02:38:58;;;;;;;2.20;1.17;;;;;;;11.57;77.19;92632.69;5016412;28;20040;-69
2022/12/11 02:41:23;;;;;;;3.88;1.45;;;;;;;11.74;75.99;92596.03;5016312;28;20021;-68
2022/12/11 02:43:49;;;;;;;2.10;1.10;;;;;;;11.87;75.81;92619.59;5033015;28;20045;-68
2022/12/11 02:46:15;;;;;;;1.52;0.80;;;;;;;11.86;76.25;92610.16;5016328;28;20557;-69
2022/12/11 02:48:41;;;;;;;1.17;0.80;;;;;;;11.94;76.55;92628.22;5022214;28;20032;-68
2022/12/11 02:51:06;;;;;;;2.42;0.88;;;;;;;11.93;76.22;92637.03;5024101;28;20033;-68
2022/12/11 02:53:33;;;;;;;2.03;0.80;;;;;;;11.93;76.30;92647.44;5034613;28;20494;-68
2022/12/11 02:56:05;;;;;;;1.60;0.90;;;;;;;11.95;75.97;92655.06;5032378;28;20037;-69
2022/12/11 02:58:30;;;;;;;;;;;;;;;11.95;75.24;92655.88;5047667;28;20102;-69
2022/12/11 03:00:55;;;;;;;2.97;1.33;;;;;;;11.88;75.99;92660.22;5031734;28;19921;-69
2022/12/11 03:03:21;;;;;;;2.30;0.90;;;;;;;11.92;76.43;92655.44;5050453;28;20025;-69
2022/12/11 03:05:46;;;;;;;4.07;1.10;;;;;;;11.92;76.41;92690.06;5018214;28;20116;-69
2022/12/11 03:08:16;;;;;;;1.65;1.08;;;;;;;11.87;76.85;92674.22;5050123;28;20486;-68
2022/12/11 03:10:41;;;;;;;5.88;1.23;;;;;;;11.80;77.18;92684.53;5031859;28;20510;-68
2022/12/11 03:13:07;;;;;;;1.48;0.90;;;;;;;11.73;77.59;92672.44;5033308;28;20029;-68
2022/12/11 03:15:54;;;;;;;6.32;1.25;;;;;;;11.72;77.22;92665.63;5032899;28;20041;-69
2022/12/11 03:18:26;;;;;;;1.40;0.70;;;;;;;11.49;76.99;92655.41;5036753;28;20041;-68
2022/12/11 03:21:14;;;;;;;3.20;0.80;;;;;;;11.63;76.34;92667.56;5048184;28;20056;-68
2022/12/11 03:23:47;;;;;;;1.15;0.80;;;;;;;11.61;76.18;92665.13;5050247;28;20032;-69
2022/12/11 03:26:13;;;;;;;2.72;1.20;;;;;;;11.73;76.54;92675.88;5048154;28;20026;-69
2022/12/11 03:28:42;;;;;;;3.40;0.80;;;;;;;11.70;77.33;92678.84;5022184;28;20442;-68
2022/12/11 03:31:10;;;;;;;1.80;0.90;;;;;;;11.56;76.87;92688.31;5043095;28;20033;-69
2022/12/11 03:33:37;;;;;;;2.55;0.70;;;;;;;11.57;74.77;92689.91;5017260;28;20033;-69
2022/12/11 03:36:05;;;;;;;2.83;0.80;;;;;;;11.80;72.56;92675.91;5013603;28;20561;-68
2022/12/11 03:38:36;;;;;;;1.80;0.90;;;;;;;11.91;72.05;92680.66;5017252;28;20040;-69
2022/12/11 03:41:01;;;;;;;2.47;0.90;;;;;;;11.87;76.11;92715.00;5026172;28;20029;-68
2022/12/11 03:43:27;;;;;;;2.42;0.80;;;;;;;11.83;73.37;92698.94;5032657;28;20419;-68
2022/12/11 03:45:53;;;;;;;3.25;0.90;;;;;;;11.99;72.36;92703.94;5032724;28;20025;-69
2022/12/11 03:48:18;;;;;;;1.10;0.70;;;;;;;12.07;69.79;92706.41;5021482;28;20044;-68
2022/12/11 03:50:44;;;;;;;2.72;0.90;;;;;;;12.21;72.02;92696.13;5027980;28;20416;-69
2022/12/11 03:53:09;;;;;;;1.30;0.82;;;;;;;12.28;71.57;92713.38;5015860;28;20025;-69
2022/12/11 03:55:35;;;;;;;2.28;0.90;;;;;;;12.28;72.35;92695.16;5018419;28;20037;-69
2022/12/11 03:58:00;;;;;;;1.98;0.93;;;;;;;12.27;73.33;92708.38;5031362;28;20057;-69
2022/12/11 04:00:26;;;;;;;3.22;1.20;;;;;;;12.15;73.02;92702.09;5032611;28;20048;-68
2022/12/11 04:03:24;;;;;;;2.35;0.80;;;;;;;12.16;68.49;92711.50;5018280;28;20033;-69
2022/12/11 04:05:54;;;;;;;2.95;0.80;;;;;;;12.27;69.90;92706.56;5024856;28;20057;-69
2022/12/11 04:08:20;;;;;;;2.25;0.90;;;;;;;12.41;70.68;92710.09;5034893;28;20033;-69
2022/12/11 04:10:46;;;;;;;2.00;0.90;;;;;;;12.41;70.58;92710.09;5028311;28;20055;-69
2022/12/11 04:13:11;;;;;;;1.25;0.70;;;;;;;12.47;69.01;92721.53;5049622;28;20028;-68
2022/12/11 04:15:37;;;;;;;2.63;0.88;;;;;;;12.46;70.76;92720.75;5014593;28;20036;-68
2022/12/11 04:26:16;;;;;;;1.30;0.80;;;;;;;12.64;65.47;92722.06;5039486;28;20032;-70
2022/12/11 04:28:42;;;;;;;1.38;0.80;;;;;;;12.81;65.76;92735.59;5034171;28;20565;-71
2022/12/11 04:31:15;;;;;;;1.33;0.93;;;;;;;12.74;68.37;92738.97;5051893;28;20032;-70
2022/12/11 04:33:41;;;;;;;1.92;0.90;;;;;;;12.84;69.60;92738.66;5034123;28;20040;-69
2022/12/11 04:36:07;;;;;;;3.50;1.00;;;;;;;12.79;69.98;92768.84;5050496;28;20483;-68
2022/12/11 04:38:32;;;;;;;5.03;2.03;;;;;;;12.70;70.44;92768.19;5033874;28;20025;-68
2022/12/11 04:41:06;;;;;;;1.95;1.10;;;;;;;12.61;67.32;92782.34;5051539;28;20455;-68
2022/12/11 04:43:31;;;;;;;2.38;0.90;;;;;;;12.47;66.34;92782.25;5018036;28;20411;-71
2022/12/11 04:46:02;;;;;;;3.95;1.70;;;;;;;12.60;67.66;92798.97;5050225;28;20033;-68
2022/12/11 04:48:27;;;;;;;3.70;1.35;;;;;;;12.43;69.53;92778.41;5030345;28;20033;-68
2022/12/11 04:50:53;;;;;;;2.10;1.23;;;;;;;12.43;69.17;92788.81;5044169;28;20025;-70
2022/12/11 04:53:18;;;;;;;2.22;1.15;;;;;;;12.46;70.41;92793.66;5030245;28;20029;-70
2022/12/11 04:55:44;;;;;;;3.65;1.13;;;;;;;12.36;68.43;92793.16;5042963;28;20052;-68
2022/12/11 04:58:09;;;;;;;5.28;2.10;;;;;;;12.29;69.77;92795.72;5051068;28;20118;-69
2022/12/11 05:00:35;;;;;;;2.00;1.17;;;;;;;12.42;70.05;92823.66;5049945;28;20095;-68
2022/12/11 05:03:00;;;;;;;2.17;1.20;;;;;;;12.27;69.29;92820.31;5050763;28;20029;-71
2022/12/11 05:05:25;;;;;;;2.47;0.80;;;;;;;12.46;62.33;92808.47;5043686;28;20044;-71
2022/12/11 05:07:51;;;;;;;1.35;0.70;;;;;;;12.61;60.71;92804.00;5032502;28;20036;-70
2022/12/11 05:10:16;;;;;;;2.03;0.80;;;;;;;12.74;63.44;92816.31;5033922;28;20401;-68
2022/12/11 05:12:42;;;;;;;2.65;0.70;;;;;;;12.84;59.89;92818.59;5035235;28;20029;-70
2022/12/11 05:15:08;;;;;;;1.95;0.70;;;;;;;12.91;60.90;92825.47;5051549;28;20037;-68
2022/12/11 05:17:33;;;;;;;1.85;0.70;;;;;;;12.82;60.86;92823.22;5049697;28;20025;-71
2022/12/11 05:19:58;;;;;;;9.80;2.97;;;;;;;12.91;59.55;92822.88;5051238;28;20049;-71
2022/12/11 05:22:24;;;;;;;1.90;0.95;;;;;;;13.06;58.79;92827.19;5033148;28;20029;-68
2022/12/11 05:24:49;;;;;;;1.63;0.70;;;;;;;13.21;56.81;92853.97;5050783;28;20410;-68
2022/12/11 05:27:15;;;;;;;4.93;0.82;;;;;;;13.26;56.24;92809.91;5050660;28;20036;-69
2022/12/11 05:29:40;;;;;;;2.03;0.73;;;;;;;13.52;56.60;92829.31;5050220;28;20037;-69
2022/12/11 05:32:06;;;;;;;4.63;1.30;;;;;;;13.60;57.51;92847.41;5049624;28;20029;-68
2022/12/11 05:34:31;;;;;;;1.48;0.65;;;;;;;13.61;57.79;92828.94;5051086;28;20036;-68
2022/12/11 05:36:57;;;;;;;1.67;0.70;;;;;;;13.53;56.48;92800.41;5043939;28;20626;-69
2022/12/11 05:39:22;;;;;;;1.63;0.73;;;;;;;13.63;56.13;92803.47;5015134;28;20037;-70
2022/12/11 05:41:48;;;;;;;1.02;0.57;;;;;;;13.57;56.79;92796.44;5032952;28;20021;-68
2022/12/11 05:44:13;;;;;;;2.10;0.85;;;;;;;13.64;57.27;92784.19;5047865;28;20044;-69
2022/12/11 05:46:39;;;;;;;2.55;0.80;;;;;;;13.66;58.57;92788.44;5029437;28;20087;-69
2022/12/11 05:49:04;;;;;;;2.20;0.80;;;;;;;13.62;56.84;92774.94;5030562;28;20038;-68
2022/12/11 05:51:30;;;;;;;1.55;0.70;;;;;;;13.61;55.42;92781.97;5032621;28;20408;-68
2022/12/11 05:53:55;;;;;;;3.05;0.95;;;;;;;13.78;56.44;92777.22;5039275;28;20048;-70
2022/12/11 05:56:26;;;;;;;1.52;0.80;;;;;;;13.72;56.35;92766.78;5045010;28;20131;-69
2022/12/11 05:58:51;;;;;;;3.30;1.00;;;;;;;13.72;59.72;92792.88;5022049;28;20116;-70
2022/12/11 06:01:22;;;;;;;2.40;0.77;;;;;;;13.67;60.37;92777.78;5040250;28;20342;-72
2022/12/11 06:03:47;;;;;;;4.85;0.85;;;;;;;13.59;56.48;92757.09;5032238;28;20037;-71
2022/12/11 06:06:13;;;;;;;2.28;1.17;;;;;;;13.75;57.45;92790.66;5046104;28;20432;-70
2022/12/11 06:08:38;;;;;;;1.77;0.70;;;;;;;13.74;57.42;92796.91;5037803;28;20087;-69
2022/12/11 06:11:05;;;;;;;3.38;0.82;;;;;;;13.72;58.68;92791.06;5006204;28;20033;-67
2022/12/11 06:13:30;;;;;;;6.35;1.73;;;;;;;13.54;58.00;92801.19;5040730;28;20049;-69
2022/12/11 06:16:00;;;;;;;17.15;8.20;;;;;;;13.55;59.89;92802.84;5030644;28;20044;-68
2022/12/11 06:18:25;;;;;;;2.80;1.60;;;;;;;13.58;57.19;92808.47;5029856;28;20029;-69
2022/12/11 06:20:51;;;;;;;2.35;1.10;;;;;;;13.70;56.70;92821.75;5050491;28;20033;-68
2022/12/11 06:23:16;;;;;;;3.22;0.80;;;;;;;13.67;56.09;92800.47;5044780;28;20032;-68
2022/12/11 06:25:42;;;;;;;2.20;0.60;;;;;;;13.78;54.91;92823.41;5041702;28;20037;-69
2022/12/11 06:28:07;;;;;;;1.58;0.70;;;;;;;13.86;55.01;92821.41;5041765;28;20487;-68
2022/12/11 06:30:33;;;;;;;2.55;0.80;;;;;;;13.95;55.81;92814.22;5045808;28;20026;-72
2022/12/11 06:32:58;;;;;;;1.63;1.00;;;;;;;14.02;56.24;92830.72;5040894;28;20032;-70
2022/12/11 06:35:24;;;;;;;3.03;1.00;;;;;;;14.00;56.68;92835.31;5045002;28;20033;-70
2022/12/11 06:37:49;;;;;;;1.20;0.60;;;;;;;14.00;56.44;92826.69;5045357;28;20039;-71
2022/12/11 06:40:15;;;;;;;1.88;0.68;;;;;;;13.81;56.13;92805.53;5049201;28;20036;-72
2022/12/11 06:42:40;;;;;;;1.30;0.60;;;;;;;14.07;57.54;92832.75;5048151;28;20068;-69
2022/12/11 06:45:06;;;;;;;1.92;0.70;;;;;;;14.09;57.01;92828.91;5048624;28;20463;-70
2022/12/11 06:47:32;;;;;;;5.38;1.40;;;;;;;14.02;57.71;92815.06;5048869;28;20033;-69
2022/12/11 06:49:57;;;;;;;3.63;1.10;;;;;;;13.98;56.86;92834.72;5043489;28;20427;-70
2022/12/11 06:52:23;;;;;;;3.38;1.52;;;;;;;14.03;57.16;92816.66;5038016;28;20108;-69
2022/12/11 06:54:49;;;;;;;3.90;0.95;;;;;;;14.10;57.03;92821.91;5006360;28;20037;-70
2022/12/11 06:57:15;;;;;;;2.33;0.98;;;;;;;13.93;59.44;92831.91;5013956;28;20059;-72
2022/12/11 06:59:40;;;;;;;1.40;0.60;;;;;;;13.90;56.90;92840.13;5042442;28;20032;-71
2022/12/11 07:02:06;;;;;;;1.55;0.60;;;;;;;14.08;57.60;92834.34;5050288;28;20070;-71
2022/12/11 07:04:31;;;;;;;1.88;1.20;;;;;;;13.95;57.43;92835.09;5048354;28;20042;-71
2022/12/11 07:06:57;;;;;;;2.65;0.90;;;;;;;14.05;56.05;92827.72;5038051;28;20029;-71
2022/12/11 07:09:23;;;;;;;4.82;1.10;;;;;;;14.14;56.55;92838.78;5017659;28;20064;-71
2022/12/11 07:11:49;;;;;;;4.03;1.60;;;;;;;14.13;57.59;92825.94;5000837;28;20551;-69
2022/12/11 07:14:15;;;;;;;3.65;1.35;;;;;;;14.01;55.68;92815.25;5042585;28;20554;-69
2022/12/11 07:16:40;;;;;;;2.45;0.93;;;;;;;14.22;55.43;92837.81;5041611;28;20041;-69
2022/12/11 07:19:06;;;;;;;4.65;1.80;;;;;;;14.19;56.50;92846.03;5039969;28;20041;-69
2022/12/11 07:21:31;;;;;;;7.28;2.90;;;;;;;14.34;56.50;92838.84;5040761;28;20024;-70
2022/12/11 07:23:57;;;;;;;4.53;1.27;;;;;;;14.41;54.92;92839.66;5042211;28;20033;-69
2022/12/11 07:26:22;;;;;;;2.47;1.30;;;;;;;14.46;55.27;92858.16;5041475;28;20021;-70
2022/12/11 07:28:48;;;;;;;2.00;0.65;;;;;;;14.52;54.15;92833.09;5041857;28;20034;-70
2022/12/11 07:31:16;;;;;;;7.53;3.38;;;;;;;14.61;55.01;92859.81;5025809;28;20129;-71
2022/12/11 07:33:41;;;;;;;12.88;5.57;;;;;;;14.49;55.98;92859.56;5039065;28;20550;-69
2022/12/11 07:36:08;;;;;;;7.53;2.30;;;;;;;14.56;56.46;92867.44;5041935;28;20025;-71
2022/12/11 07:38:33;;;;;;;3.00;1.08;;;;;;;14.48;54.89;92852.72;5033864;28;20029;-71
2022/12/11 07:41:00;;;;;;;6.65;2.22;;;;;;;14.31;55.02;92849.69;5036181;28;20564;-70
2022/12/11 07:43:26;;;;;;;5.18;1.55;;;;;;;14.54;55.26;92885.91;5045937;28;20116;-70
2022/12/11 07:45:51;;;;;;;2.70;1.13;;;;;;;14.49;54.54;92864.81;5045654;28;20083;-71
2022/12/11 07:48:17;;;;;;;3.75;1.50;;;;;;;14.65;55.28;92887.94;5032195;28;20084;-72
2022/12/11 07:50:42;;;;;;;2.60;1.23;;;;;;;14.60;54.49;92879.94;5016467;28;20044;-72
2022/12/11 07:53:07;;;;;;;3.20;1.40;;;;;;;14.75;55.60;92879.75;5039932;28;20036;-72
2022/12/11 07:55:33;;;;;;;3.90;1.25;;;;;;;14.70;54.57;92869.06;5045821;28;20041;-73
2022/12/11 07:57:58;;;;;;;2.83;1.25;;;;;;;14.85;55.31;92882.78;5052412;28;20049;-73
2022/12/11 08:00:24;;;;;;;3.47;1.67;;;;;;;14.91;54.80;92881.19;5032691;28;20577;-74
2022/12/11 08:02:49;;;;;;;4.43;2.33;;;;;;;14.93;54.75;92879.97;5030208;28;20503;-73
2022/12/11 08:05:15;;;;;;;5.63;1.83;;;;;;;14.89;53.96;92878.75;5037903;28;20032;-72
2022/12/11 08:07:40;;;;;;;2.35;1.20;;;;;;;14.95;55.37;92883.16;5049158;28;20036;-73
2022/12/11 08:10:06;;;;;;;3.20;1.30;;;;;;;15.09;55.63;92889.22;5045194;28;20033;-71
2022/12/11 08:12:31;;;;;;;4.68;2.28;;;;;;;15.15;54.78;92898.88;5045463;28;20037;-72
2022/12/11 08:14:57;;;;;;;2.90;1.10;;;;;;;15.11;55.79;92891.63;5031055;28;20060;-70
2022/12/11 08:17:22;;;;;;;2.85;1.20;;;;;;;15.09;55.95;92897.06;5045182;28;20036;-71
2022/12/11 08:19:48;;;;;;;4.53;1.83;;;;;;;15.16;56.06;92894.47;5035713;28;20330;-71
2022/12/11 08:22:13;;;;;;;4.05;2.53;;;;;;;14.92;55.83;92878.34;5040420;28;20457;-73
2022/12/11 08:24:39;;;;;;;2.75;1.20;;;;;;;15.03;55.38;92897.88;5041700;28;20037;-71
2022/12/11 08:27:04;;;;;;;3.05;1.20;;;;;;;15.07;55.19;92898.25;5041105;28;20045;-71
2022/12/11 08:29:30;;;;;;;4.68;1.60;;;;;;;15.07;55.23;92893.03;5036001;28;20462;-71
2022/12/11 08:31:55;;;;;;;3.28;1.17;;;;;;;15.05;55.31;92885.41;5041368;28;20105;-71
2022/12/11 08:34:21;;;;;;;1.98;1.10;;;;;;;15.20;54.49;92879.97;5043168;28;20025;-72
2022/12/11 08:36:46;;;;;;;2.45;0.93;;;;;;;15.15;54.86;92882.38;5021927;28;20116;-70
2022/12/11 08:39:12;;;;;;;2.28;0.80;;;;;;;15.06;55.09;92886.19;5039103;28;20091;-69
2022/12/11 08:41:37;;;;;;;2.90;1.10;;;;;;;14.98;55.22;92887.19;5040850;28;20044;-69
2022/12/11 08:44:03;;;;;;;3.60;0.88;;;;;;;15.00;54.48;92874.75;5041917;28;20091;-69
2022/12/11 08:46:30;;;;;;;3.83;2.25;;;;;;;15.06;54.71;92888.81;5023789;28;20041;-71
2022/12/11 08:48:56;;;;;;;3.08;1.30;;;;;;;14.94;55.18;92876.34;5032010;28;20087;-72
2022/12/11 08:51:24;;;;;;;4.55;1.70;;;;;;;15.03;55.09;92879.56;5035675;28;20068;-70
2022/12/11 08:53:50;;;;;;;2.33;1.00;;;;;;;15.10;54.80;92876.94;5039500;28;20045;-71
2022/12/11 08:56:17;;;;;;;4.15;1.30;;;;;;;15.30;54.44;92871.72;5037623;28;20040;-70
2022/12/11 08:58:43;;;;;;;1.75;0.73;;;;;;;15.32;54.64;92867.91;5029859;28;20044;-72
2022/12/11 09:01:11;;;;;;;3.88;2.00;;;;;;;15.56;55.30;92883.97;5036253;28;20108;-72
2022/12/11 09:03:36;;;;;;;1.45;0.88;;;;;;;15.74;53.85;92880.72;5042739;28;20044;-73
2022/12/11 09:06:06;;;;;;;2.92;1.00;;;;;;;15.79;53.30;92894.00;5049094;28;20407;-72
2022/12/11 09:08:32;;;;;;;2.03;0.90;;;;;;;15.86;52.76;92872.03;5018057;28;20032;-73
2022/12/11 09:11:08;;;;;;;3.13;1.15;;;;;;;15.92;52.73;92864.38;5031735;28;20026;-73
2022/12/11 09:13:34;;;;;;;3.60;1.10;;;;;;;15.97;52.88;92860.13;5030315;28;20026;-73
2022/12/11 09:15:59;;;;;;;2.13;0.90;;;;;;;16.12;52.33;92869.53;5031168;28;20522;-73
2022/12/11 09:18:25;;;;;;;3.65;1.30;;;;;;;16.38;52.25;92864.19;5030299;28;20021;-73
2022/12/11 09:21:04;;;;;;;2.30;1.10;;;;;;;16.43;51.39;92853.84;5030363;28;20037;-72
2022/12/11 09:23:29;;;;;;;7.00;1.52;;;;;;;16.52;51.79;92863.09;5013835;28;20427;-73
2022/12/11 09:25:55;;;;;;;3.38;1.17;;;;;;;16.58;50.89;92856.22;5030398;28;20034;-73
2022/12/11 09:28:20;;;;;;;1.63;1.02;;;;;;;16.54;50.34;92828.81;5030100;28;20025;-73
2022/12/11 09:30:46;;;;;;;2.58;1.00;;;;;;;16.64;49.87;92839.63;5028938;28;20037;-73
2022/12/11 09:33:11;;;;;;;3.22;1.10;;;;;;;16.49;49.73;92839.13;5029513;28;20026;-73
2022/12/11 09:35:37;;;;;;;3.25;1.48;;;;;;;16.49;50.59;92837.31;5029553;28;20042;-73
2022/12/11 09:38:02;;;;;;;2.42;0.88;;;;;;;16.43;50.48;92838.13;5028275;28;20392;-72
2022/12/11 09:40:28;;;;;;;1.98;1.40;;;;;;;16.31;50.30;92847.69;5028315;28;20403;-73
2022/12/11 09:43:08;;;;;;;2.30;0.80;;;;;;;16.21;50.46;92829.00;5028467;28;20037;-73
2022/12/11 09:45:33;;;;;;;3.80;1.02;;;;;;;16.15;51.74;92835.88;5014243;28;20022;-72
2022/12/11 09:47:59;;;;;;;5.22;1.10;;;;;;;15.97;52.29;92831.31;5012625;28;20102;-73
2022/12/11 09:50:29;;;;;;;2.08;1.10;;;;;;;15.98;53.67;92835.53;5013474;28;20034;-72
2022/12/11 09:52:58;;;;;;;2.17;1.05;;;;;;;15.93;54.61;92845.81;5013530;28;20029;-72
2022/12/11 09:55:24;;;;;;;2.10;1.20;;;;;;;15.87;54.08;92841.41;5029901;28;20087;-73
2022/12/11 09:58:19;;;;;;;4.45;1.70;;;;;;;15.73;54.05;92845.09;5029955;28;20053;-73
2022/12/11 10:00:51;;;;;;;2.75;1.00;;;;;;;15.63;54.09;92833.22;5030205;28;20478;-72
2022/12/11 10:03:29;;;;;;;2.75;1.00;;;;;;;15.53;54.19;92838.06;5029947;28;20030;-73
2022/12/11 10:06:04;;;;;;;2.00;0.93;;;;;;;15.42;54.58;92836.88;5030931;28;20092;-73
2022/12/11 10:08:30;;;;;;;3.97;1.63;;;;;;;15.54;53.87;92831.81;5029835;28;20037;-72
2022/12/11 10:11:33;;;;;;;2.85;1.20;;;;;;;15.48;53.65;92824.78;5032205;28;20025;-73
2022/12/11 10:14:17;;;;;;;5.03;1.58;;;;;;;15.54;54.06;92829.19;5033474;28;20029;-72
2022/12/11 10:16:50;;;;;;;5.93;3.00;;;;;;;15.58;54.30;92819.16;5035349;28;20040;-73
2022/12/11 10:19:22;;;;;;;3.00;1.20;;;;;;;15.52;54.55;92819.97;5018284;28;20112;-73
2022/12/11 10:21:48;;;;;;;2.75;1.42;;;;;;;15.62;54.58;92828.97;5033872;28;20041;-73
2022/12/11 10:24:21;;;;;;;3.22;1.30;;;;;;;15.48;55.51;92821.38;5035679;28;20021;-73
2022/12/11 10:26:47;;;;;;;4.57;1.63;;;;;;;15.26;56.07;92826.84;5017535;28;20033;-73
2022/12/11 10:29:14;;;;;;;4.55;1.40;;;;;;;15.27;56.58;92838.94;5033617;28;20032;-73
2022/12/11 10:31:50;;;;;;;2.63;1.20;;;;;;;15.19;57.76;92845.16;5017356;28;20037;-73
2022/12/11 10:34:35;;;;;;;2.60;0.95;;;;;;;15.09;57.93;92839.53;5033562;28;20025;-72
2022/12/11 10:37:00;;;;;;;3.55;0.90;;;;;;;15.09;58.56;92842.16;5018003;28;20041;-73
2022/12/11 10:39:26;;;;;;;2.92;1.30;;;;;;;15.05;58.67;92827.09;5033236;28;20099;-74
2022/12/11 10:41:53;;;;;;;4.85;1.90;;;;;;;15.01;60.01;92829.28;5033161;28;20065;-74
2022/12/11 10:44:20;;;;;;;5.50;1.80;;;;;;;15.05;59.31;92821.84;5016884;28;20025;-72
2022/12/11 10:46:47;;;;;;;3.95;1.73;;;;;;;15.14;58.99;92829.28;5034584;28;20472;-73
2022/12/11 10:49:29;;;;;;;11.35;4.57;;;;;;;15.15;59.17;92815.19;5032959;28;20034;-73
2022/12/11 10:51:55;;;;;;;4.70;1.70;;;;;;;15.07;58.77;92789.28;5034616;28;20053;-73
2022/12/11 10:54:35;;;;;;;3.28;1.15;;;;;;;15.24;58.56;92815.81;5032944;28;20530;-74
2022/12/11 10:57:01;;;;;;;2.72;1.27;;;;;;;15.08;59.34;92798.72;5032882;28;20475;-73
2022/12/11 10:59:32;;;;;;;4.55;1.30;;;;;;;15.15;59.15;92807.34;5000239;28;20172;-72
2022/12/11 11:01:57;;;;;;;2.10;1.05;;;;;;;15.03;59.54;92808.97;5033179;28;20060;-73
2022/12/11 11:04:29;;;;;;;79.60;37.88;;;;;;;14.82;60.72;92793.50;5032635;28;20026;-73
2022/12/11 11:07:11;;;;;;;12.85;7.25;;;;;;;14.84;60.18;92802.75;5032684;28;20103;-73
2022/12/11 11:09:38;;;;;;;3.33;2.30;;;;;;;14.76;60.16;92795.09;5033913;28;20099;-73
2022/12/11 11:12:04;;;;;;;3.28;1.80;;;;;;;14.85;60.23;92795.69;5032665;28;20500;-73
2022/12/11 11:14:29;;;;;;;3.00;1.80;;;;;;;14.84;60.76;92804.56;5034174;28;20038;-74
2022/12/11 11:16:55;;;;;;;3.13;2.15;;;;;;;14.71;61.27;92789.69;5033881;28;20430;-72
2022/12/11 11:19:26;;;;;;;4.15;2.10;;;;;;;14.65;61.59;92786.03;5016161;28;20117;-73
2022/12/11 11:21:56;;;;;;;4.25;1.60;;;;;;;14.53;61.20;92791.06;5016300;28;20584;-73
2022/12/11 11:24:43;;;;;;;4.78;1.70;;;;;;;14.58;61.75;92777.41;5016288;28;20049;-73
2022/12/11 11:27:26;;;;;;;3.00;1.80;;;;;;;14.62;62.00;92785.66;5017362;28;20048;-72
2022/12/11 11:29:57;;;;;;;5.13;1.70;;;;;;;14.54;62.04;92797.09;5032324;28;20131;-73
2022/12/11 11:32:37;;;;;;;4.00;1.70;;;;;;;14.64;61.35;92787.06;4999465;28;20041;-73
2022/12/11 11:35:10;;;;;;;3.03;1.60;;;;;;;14.77;61.11;92793.31;5017855;28;20499;-73
2022/12/11 11:37:35;;;;;;;5.22;1.40;;;;;;;14.66;60.98;92790.28;5033752;28;20037;-73
2022/12/11 11:40:30;;;;;;;3.03;1.48;;;;;;;14.81;60.17;92774.41;5033332;28;20446;-73
2022/12/11 11:43:31;;;;;;;6.43;2.20;;;;;;;14.76;60.05;92771.56;5049129;28;20419;-72
2022/12/11 11:46:00;;;;;;;2.10;1.20;;;;;;;14.82;59.38;92773.41;5022320;28;20049;-73